Portada
METAR-TAF:

METAR-TAF

Aeroports :

Aeroport Internacional de Tunis

Tunis, Tunísia

latitud: 36-50N, longitud: 010-14E, altitud: 3 m

Observació

L'informe es va fer fa 15 minuts, a les 19:30 UTC
Vent 5 kt del Nord-Oest
Temperatura 18°C
Humitat 73%
Pressió 1016 hPa
Visibilitat: 8000 m
Núvols disperses a una alçada de 2000 ft
Núvols disperses a una alçada de 2300 ft

METAR: DTTA 221930Z 31005KT 8000 SCT020 SCT023 18/13 Q1016 NOSIG

Hora: 20:45 (19:45 UTC)

Pronòstic

L'informe es va fer fa 2 hores i 15 minuts, a les 17:30 UTC
Pronòstic vàlid del 22 a les 18 UTC al 23 a les 18 UTC
Vent 10 kt del Nord
Visibilitat 10 km o més
Escasses núvols a una alçada de 2000 ft
Núvols disperses a una alçada de 3300 ft

TAF: DTTA 221730Z 2218/2318 35010KT 9999 FEW020 SCT033

Observacions i pronòstics meteorològics de més de 4000 aeroports (METAR i TAF).

Les estacions disponibles són els punts grocs i vermells al mapa.

Posi el ratolí al punt desitjat per veure el nom de l'estació.

Feu clic per veure les observacions i els pronòstics meteorològics.

Per canviar el mapa: feu clic els botons verds amb una creu de color negre per apropar; al botó verd amb un guió per allunyar la imatge; o en les fletxes verdes per a mapes adjacents.


METAR-TAF: